Time;durP1;ratioP1;P1;durP2;ratioP2;P2;SDS_P1;SDS_P2;PMS_P1;PMS_P2;Temp;Humidity;BMP_temperature;BMP_pressure;BME280_temperature;BME280_humidity;BME280_pressure;Samples;Min_cycle;Max_cycle;Signal;HPM_P1;HPM_P2
2022/05/30 05:00:49;;;;;;;5.90;4.13;;;8.80;97.20;;;;;;1714360;28;21846;-76
2022/05/30 05:01:40;;;;;;;3.92;3.53;;;8.80;97.20;;;;;;1718318;28;20213;-76
2022/05/30 05:02:32;;;;;;;3.72;3.05;;;8.90;97.20;;;;;;1720655;28;20260;-77
2022/05/30 05:03:23;;;;;;;3.63;3.33;;;8.90;97.20;;;;;;1714660;28;20206;-76
2022/05/30 05:04:15;;;;;;;4.13;3.13;;;8.90;97.20;;;;;;1715402;28;20244;-76
2022/05/30 05:05:06;;;;;;;3.65;3.03;;;9.00;97.20;;;;;;1714914;28;20444;-75
2022/05/30 05:06:02;;;;;;;3.88;3.30;;;9.00;97.20;;;;;;1714956;28;20206;-76
2022/05/30 05:06:53;;;;;;;3.80;3.40;;;9.10;97.20;;;;;;1714303;28;20855;-76
2022/05/30 05:07:49;;;;;;;3.60;3.07;;;9.10;97.20;;;;;;1714768;28;20198;-76
2022/05/30 05:08:49;;;;;;;4.82;3.85;;;9.10;97.20;;;;;;1715450;28;20237;-76
2022/05/30 05:09:47;;;;;;;3.40;3.10;;;9.20;97.20;;;;;;1715434;28;20273;-75
2022/05/30 05:10:44;;;;;;;4.15;3.75;;;9.20;97.20;;;;;;1715118;28;20674;-76
2022/05/30 05:11:38;;;;;;;3.90;3.50;;;9.30;97.20;;;;;;1715073;28;20237;-75
2022/05/30 05:12:28;;;;;;;3.05;2.85;;;9.30;97.20;;;;;;1714506;28;20208;-74
2022/05/30 05:13:20;;;;;;;3.23;2.87;;;9.30;97.20;;;;;;1714106;28;20201;-74
2022/05/30 05:14:11;;;;;;;3.90;3.00;;;9.30;97.20;;;;;;1714351;28;20205;-74
2022/05/30 05:15:03;;;;;;;3.63;3.33;;;9.30;97.20;;;;;;1714358;28;20198;-74
2022/05/30 05:15:56;;;;;;;4.95;3.70;;;9.30;97.20;;;;;;1713995;28;20206;-73
2022/05/30 05:16:48;;;;;;;3.95;3.20;;;9.30;97.20;;;;;;1714114;28;20205;-74
2022/05/30 05:17:39;;;;;;;3.05;2.85;;;9.30;97.20;;;;;;1714356;28;20578;-73
2022/05/30 05:18:30;;;;;;;3.03;2.83;;;9.40;97.20;;;;;;1714298;28;20579;-73
2022/05/30 05:19:21;;;;;;;5.03;3.35;;;9.40;97.20;;;;;;1714252;28;20205;-75
2022/05/30 05:20:14;;;;;;;3.63;3.33;;;9.40;97.20;;;;;;1714297;28;20205;-73
2022/05/30 05:21:05;;;;;;;3.30;3.00;;;9.40;97.20;;;;;;1714204;28;20445;-74
2022/05/30 05:21:56;;;;;;;4.28;3.20;;;9.40;97.20;;;;;;1714253;28;20202;-75
2022/05/30 05:22:47;;;;;;;3.90;3.60;;;9.40;97.20;;;;;;1714533;28;20307;-75
2022/05/30 05:23:39;;;;;;;4.30;3.33;;;9.50;97.20;;;;;;1714341;28;20194;-75
2022/05/30 05:24:29;;;;;;;3.92;3.63;;;9.50;97.20;;;;;;1714227;28;20206;-75
2022/05/30 05:25:21;;;;;;;4.13;3.63;;;9.50;97.20;;;;;;1713982;28;20205;-75
2022/05/30 05:26:12;;;;;;;3.90;3.60;;;9.50;97.20;;;;;;1714125;28;20220;-73
2022/05/30 05:27:05;;;;;;;7.00;3.20;;;9.50;97.20;;;;;;1714147;28;20202;-75
2022/05/30 05:27:56;;;;;;;4.28;3.10;;;9.50;97.20;;;;;;1707808;28;20209;-76
2022/05/30 05:28:48;;;;;;;3.33;3.03;;;9.50;97.20;;;;;;1707653;28;20209;-74
2022/05/30 05:29:40;;;;;;;4.20;3.15;;;9.60;97.20;;;;;;1707607;29;20198;-74
2022/05/30 05:30:31;;;;;;;3.72;3.20;;;9.60;97.20;;;;;;1707783;29;20206;-75
2022/05/30 05:31:26;;;;;;;4.17;3.00;;;9.60;97.20;;;;;;1713696;28;20228;-75
2022/05/30 05:32:16;;;;;;;3.20;2.80;;;9.60;97.20;;;;;;1712024;28;20507;-75
2022/05/30 05:33:08;;;;;;;3.23;2.93;;;9.70;97.20;;;;;;1712702;28;20209;-75
2022/05/30 05:34:00;;;;;;;3.75;2.80;;;9.70;97.20;;;;;;1712804;28;20252;-74
2022/05/30 05:34:52;;;;;;;3.00;2.80;;;9.70;97.20;;;;;;1713188;28;20197;-75
2022/05/30 05:35:43;;;;;;;3.45;2.72;;;9.80;97.20;;;;;;1712599;28;21991;-75
2022/05/30 05:36:39;;;;;;;3.70;2.75;;;9.80;97.20;;;;;;1711938;28;20241;-75
2022/05/30 05:37:32;;;;;;;2.55;2.35;;;9.90;97.20;;;;;;1715451;28;20202;-75
2022/05/30 05:38:24;;;;;;;3.75;2.70;;;9.90;97.20;;;;;;1716121;28;20634;-75
2022/05/30 05:39:16;;;;;;;3.60;2.60;;;9.90;97.20;;;;;;1715102;28;20201;-74
2022/05/30 05:40:08;;;;;;;3.58;3.05;;;10.00;97.20;;;;;;1714917;28;20193;-75
2022/05/30 05:40:59;;;;;;;3.83;2.75;;;10.00;97.20;;;;;;1715715;28;20256;-75
2022/05/30 05:41:51;;;;;;;4.53;2.83;;;10.10;97.20;;;;;;1716549;28;20220;-75
2022/05/30 05:42:41;;;;;;;3.97;3.13;;;10.10;97.20;;;;;;1715506;28;20201;-75
2022/05/30 05:43:33;;;;;;;4.60;3.00;;;10.10;97.20;;;;;;1716289;28;20470;-75
2022/05/30 05:44:24;;;;;;;3.90;3.50;;;10.20;97.20;;;;;;1717058;28;20204;-75
2022/05/30 05:45:16;;;;;;;4.47;3.33;;;10.20;97.20;;;;;;1716465;28;20213;-74
2022/05/30 05:46:12;;;;;;;5.30;3.20;;;10.20;97.20;;;;;;1716566;28;20225;-75
2022/05/30 05:47:06;;;;;;;4.40;3.28;;;10.30;97.20;;;;;;1715974;28;20205;-74
2022/05/30 05:47:56;;;;;;;3.40;3.20;;;10.30;97.20;;;;;;1715975;28;20211;-74
2022/05/30 05:48:49;;;;;;;3.70;3.40;;;10.30;97.20;;;;;;1717433;28;20207;-75
2022/05/30 05:49:40;;;;;;;3.35;3.13;;;10.30;97.20;;;;;;1715313;28;20202;-75
2022/05/30 05:50:31;;;;;;;3.47;3.17;;;10.40;97.20;;;;;;1716114;28;20285;-75
2022/05/30 05:51:23;;;;;;;4.28;3.75;;;10.40;97.20;;;;;;1715697;28;20240;-75
2022/05/30 05:52:15;;;;;;;4.30;3.90;;;10.40;97.20;;;;;;1716763;28;20194;-75
2022/05/30 05:53:06;;;;;;;6.65;4.00;;;10.50;97.20;;;;;;1716670;28;20255;-75
2022/05/30 05:53:58;;;;;;;3.90;3.50;;;10.50;97.20;;;;;;1716666;28;20201;-75
2022/05/30 05:54:49;;;;;;;3.85;3.45;;;10.50;97.20;;;;;;1716615;28;20662;-75
2022/05/30 05:55:40;;;;;;;4.23;3.43;;;10.60;97.20;;;;;;1716747;28;20702;-75
2022/05/30 05:56:32;;;;;;;3.70;3.40;;;10.60;97.20;;;;;;1715463;28;20236;-74
2022/05/30 05:57:25;;;;;;;3.72;3.28;;;10.70;97.20;;;;;;1716667;28;20284;-75
2022/05/30 05:58:16;;;;;;;4.18;3.65;;;10.70;97.20;;;;;;1715894;28;20202;-75
2022/05/30 05:59:08;;;;;;;4.20;3.80;;;10.70;97.20;;;;;;1714649;28;20209;-75
2022/05/30 05:59:58;;;;;;;4.10;3.70;;;10.80;97.20;;;;;;1715780;28;20204;-75
2022/05/30 06:00:50;;;;;;;3.93;3.63;;;10.80;97.20;;;;;;1718368;28;20204;-74
2022/05/30 06:01:41;;;;;;;4.32;3.67;;;10.80;97.20;;;;;;1715324;28;20279;-75
2022/05/30 06:02:34;;;;;;;3.93;3.63;;;10.80;97.20;;;;;;1716202;28;20969;-75
2022/05/30 06:03:25;;;;;;;5.75;4.75;;;10.90;97.20;;;;;;1716789;28;20235;-75
2022/05/30 06:04:16;;;;;;;6.57;4.03;;;10.90;97.20;;;;;;1717632;28;20198;-74
2022/05/30 06:05:09;;;;;;;4.30;3.88;;;11.00;97.20;;;;;;1716584;28;20216;-74
2022/05/30 06:06:01;;;;;;;4.38;4.07;;;11.00;97.20;;;;;;1715661;28;20281;-74
2022/05/30 06:06:51;;;;;;;5.00;4.10;;;11.00;97.20;;;;;;1715326;28;20303;-74
2022/05/30 06:07:44;;;;;;;5.13;4.70;;;11.10;97.20;;;;;;1716129;28;20201;-75
2022/05/30 06:08:36;;;;;;;7.97;4.90;;;11.10;97.20;;;;;;1716980;28;20216;-73
2022/05/30 06:09:27;;;;;;;6.65;4.68;;;11.10;97.20;;;;;;1716905;28;20192;-74
2022/05/30 06:10:19;;;;;;;5.93;4.43;;;11.10;97.20;;;;;;1715409;28;20298;-75
2022/05/30 06:11:11;;;;;;;5.30;4.80;;;11.20;97.20;;;;;;1715402;28;20261;-75
2022/05/30 06:12:04;;;;;;;10.80;5.15;;;11.20;97.20;;;;;;1715368;28;20198;-75
2022/05/30 06:12:54;;;;;;;9.27;5.05;;;11.20;97.20;;;;;;1717236;28;20685;-74
2022/05/30 06:13:47;;;;;;;7.80;4.80;;;11.20;97.20;;;;;;1715962;28;20654;-75
2022/05/30 06:14:38;;;;;;;6.88;5.20;;;11.30;97.20;;;;;;1716055;28;20249;-75
2022/05/30 06:15:30;;;;;;;7.50;5.00;;;11.30;97.20;;;;;;1716729;28;20206;-74
2022/05/30 06:16:22;;;;;;;11.45;5.18;;;11.40;97.20;;;;;;1715781;28;20566;-75
2022/05/30 06:17:14;;;;;;;9.63;5.43;;;11.40;97.20;;;;;;1716021;28;20312;-75
2022/05/30 06:18:07;;;;;;;8.68;5.60;;;11.40;97.20;;;;;;1716734;28;20197;-75
2022/05/30 06:19:00;;;;;;;11.43;5.35;;;11.50;97.20;;;;;;1717109;28;20609;-74
2022/05/30 06:19:51;;;;;;;5.60;5.03;;;11.50;97.20;;;;;;1715054;28;20233;-75
2022/05/30 06:20:43;;;;;;;5.00;4.60;;;11.50;97.20;;;;;;1716383;28;20208;-74
2022/05/30 06:21:34;;;;;;;6.20;4.55;;;11.60;97.20;;;;;;1715745;28;20210;-75
2022/05/30 06:22:26;;;;;;;4.90;4.40;;;11.60;97.20;;;;;;1717372;28;20232;-74
2022/05/30 06:23:16;;;;;;;7.65;4.95;;;11.60;97.20;;;;;;1715777;28;20662;-75
2022/05/30 06:24:10;;;;;;;7.10;4.30;;;11.70;97.20;;;;;;1716500;28;20575;-75
2022/05/30 06:25:02;;;;;;;6.35;4.20;;;11.70;97.20;;;;;;1716315;28;20605;-75
2022/05/30 06:25:54;;;;;;;7.63;5.00;;;11.70;97.20;;;;;;1714865;28;20232;-74
2022/05/30 06:26:46;;;;;;;9.80;5.22;;;11.80;97.20;;;;;;1716336;28;20221;-75
2022/05/30 06:27:37;;;;;;;6.05;5.10;;;11.80;97.20;;;;;;1716530;28;20245;-75
2022/05/30 06:28:29;;;;;;;12.80;6.30;;;11.80;97.20;;;;;;1715760;28;20608;-75
2022/05/30 06:29:21;;;;;;;6.78;5.60;;;11.80;97.20;;;;;;1715702;28;20205;-75
2022/05/30 06:30:14;;;;;;;7.15;5.00;;;11.80;97.20;;;;;;1716400;28;20276;-75
2022/05/30 06:31:11;;;;;;;7.68;5.70;;;11.90;97.20;;;;;;1717639;28;20202;-75
2022/05/30 06:32:04;;;;;;;6.10;4.78;;;11.90;97.20;;;;;;1716945;28;20198;-75
2022/05/30 06:32:55;;;;;;;5.63;5.13;;;11.90;97.20;;;;;;1717193;28;20283;-75
2022/05/30 06:33:48;;;;;;;5.13;4.60;;;11.90;97.20;;;;;;1716291;28;20193;-74
2022/05/30 06:34:39;;;;;;;7.60;5.22;;;12.00;97.20;;;;;;1715874;28;21329;-75
2022/05/30 06:35:30;;;;;;;8.95;5.20;;;12.00;97.20;;;;;;1716046;28;20207;-73
2022/05/30 06:36:24;;;;;;;5.70;5.17;;;12.00;97.20;;;;;;1716520;28;20300;-75
2022/05/30 06:37:15;;;;;;;5.97;4.43;;;12.10;97.20;;;;;;1716015;28;20570;-75
2022/05/30 06:38:08;;;;;;;6.47;5.07;;;12.10;97.20;;;;;;1717164;28;20189;-75
2022/05/30 06:39:00;;;;;;;6.75;4.70;;;12.10;97.20;;;;;;1715807;28;20197;-75
2022/05/30 06:39:52;;;;;;;7.00;4.55;;;12.10;97.20;;;;;;1715866;28;20229;-75
2022/05/30 06:40:43;;;;;;;8.13;5.10;;;12.20;97.20;;;;;;1716874;28;20216;-73
2022/05/30 06:41:34;;;;;;;6.25;5.65;;;12.20;97.20;;;;;;1714821;28;20437;-74
2022/05/30 06:42:26;;;;;;;7.00;4.83;;;12.20;97.20;;;;;;1717173;28;20200;-75
2022/05/30 06:43:17;;;;;;;6.05;5.45;;;12.30;97.20;;;;;;1715838;28;20241;-75
2022/05/30 06:44:09;;;;;;;7.30;4.90;;;12.30;97.20;;;;;;1715414;28;20205;-75
2022/05/30 06:44:59;;;;;;;5.50;4.38;;;12.30;97.20;;;;;;1715737;28;20194;-74
2022/05/30 06:45:51;;;;;;;5.17;4.57;;;12.40;97.20;;;;;;1717159;28;20194;-75
2022/05/30 06:46:42;;;;;;;4.68;4.20;;;12.40;97.20;;;;;;1715394;28;20201;-74
2022/05/30 06:47:33;;;;;;;6.03;4.20;;;12.50;97.20;;;;;;1714541;28;20198;-75
2022/05/30 06:48:24;;;;;;;4.85;4.00;;;12.50;97.20;;;;;;1716459;28;20225;-75
2022/05/30 06:49:17;;;;;;;5.10;3.63;;;12.60;97.20;;;;;;1718905;28;20197;-75
2022/05/30 06:50:09;;;;;;;6.40;4.50;;;12.60;97.20;;;;;;1717165;28;20237;-76
2022/05/30 06:51:03;;;;;;;3.03;2.83;;;12.70;97.20;;;;;;1716686;28;20642;-75
2022/05/30 06:51:54;;;;;;;5.85;3.35;;;12.70;97.20;;;;;;1716453;28;20229;-75
2022/05/30 06:52:46;;;;;;;12.93;3.60;;;12.70;97.20;;;;;;1715949;28;20345;-75
2022/05/30 06:53:37;;;;;;;3.63;3.17;;;12.80;97.20;;;;;;1716002;28;20625;-74
2022/05/30 06:54:30;;;;;;;3.72;3.30;;;12.80;97.20;;;;;;1715898;28;20193;-75
2022/05/30 06:55:21;;;;;;;4.03;3.17;;;12.90;97.20;;;;;;1715860;28;20232;-75
2022/05/30 06:56:14;;;;;;;6.27;3.03;;;12.90;97.20;;;;;;1715036;28;20296;-75
2022/05/30 06:58:14;;;;;;;6.95;3.47;;;12.90;97.20;;;;;;1703279;29;20672;-74
2022/05/30 06:59:05;;;;;;;2.97;2.67;;;13.00;97.20;;;;;;1708471;28;20205;-75
2022/05/30 06:59:56;;;;;;;4.30;2.70;;;13.00;97.20;;;;;;1715823;28;20267;-75
2022/05/30 07:00:49;;;;;;;4.90;3.10;;;13.10;97.20;;;;;;1716419;28;20713;-75
2022/05/30 07:01:40;;;;;;;3.58;3.28;;;13.10;97.20;;;;;;1715299;28;20232;-75
2022/05/30 07:02:31;;;;;;;4.22;2.78;;;13.10;97.20;;;;;;1716573;28;20655;-75
2022/05/30 07:03:23;;;;;;;2.90;2.67;;;13.20;97.20;;;;;;1715682;28;20194;-74
2022/05/30 07:04:13;;;;;;;6.68;3.35;;;13.20;97.20;;;;;;1714702;28;20268;-75
2022/05/30 07:05:08;;;;;;;3.50;3.20;;;13.30;97.20;;;;;;1715658;28;20201;-74
2022/05/30 07:05:58;;;;;;;7.82;2.88;;;13.30;97.20;;;;;;1715934;28;20276;-75
2022/05/30 07:06:50;;;;;;;4.50;2.97;;;13.40;97.20;;;;;;1715265;28;20205;-75
2022/05/30 07:07:41;;;;;;;5.22;2.72;;;13.40;97.20;;;;;;1716030;28;20233;-75
2022/05/30 07:08:33;;;;;;;3.35;2.78;;;13.50;97.20;;;;;;1714262;28;20198;-75
2022/05/30 07:09:24;;;;;;;3.05;2.75;;;13.50;97.20;;;;;;1715441;28;20241;-75
2022/05/30 07:10:16;;;;;;;2.97;2.40;;;13.60;97.20;;;;;;1716310;28;20206;-74
2022/05/30 07:11:06;;;;;;;3.95;2.80;;;13.60;97.20;;;;;;1714561;28;20198;-75
2022/05/30 07:11:58;;;;;;;3.80;2.47;;;13.70;97.20;;;;;;1729235;23;20218;-69
2022/05/30 07:12:49;;;;;;;5.63;2.60;;;13.70;97.20;;;;;;1715556;28;20228;-69
2022/05/30 07:13:40;;;;;;;2.13;1.93;;;13.70;97.20;;;;;;1715036;28;20197;-69
2022/05/30 07:14:31;;;;;;;10.07;3.08;;;13.70;97.20;;;;;;1714520;28;20206;-69
2022/05/30 07:15:23;;;;;;;4.10;2.30;;;13.80;97.20;;;;;;1715586;28;20206;-69
2022/05/30 07:16:14;;;;;;;3.55;2.97;;;13.80;97.20;;;;;;1715366;28;20236;-69
2022/05/30 07:17:07;;;;;;;7.50;3.80;;;13.80;97.20;;;;;;1715394;28;20224;-69
2022/05/30 07:17:58;;;;;;;6.35;3.10;;;13.80;97.20;;;;;;1714306;28;20193;-69
2022/05/30 07:18:50;;;;;;;8.77;3.33;;;13.90;97.20;;;;;;1715141;28;20726;-69
2022/05/30 07:19:40;;;;;;;4.20;3.30;;;13.90;97.20;;;;;;1716153;28;20225;-69
2022/05/30 07:20:33;;;;;;;3.93;3.53;;;14.00;97.20;;;;;;1714813;28;20488;-69
2022/05/30 07:21:25;;;;;;;3.95;3.28;;;14.00;97.20;;;;;;1714685;28;20229;-69
2022/05/30 07:22:16;;;;;;;3.35;2.80;;;14.10;97.20;;;;;;1708851;28;20728;-69
2022/05/30 07:23:08;;;;;;;5.27;3.37;;;14.10;97.20;;;;;;1708162;28;20661;-69
2022/05/30 07:23:59;;;;;;;2.88;2.65;;;14.10;97.20;;;;;;1706905;28;20492;-69
2022/05/30 07:24:51;;;;;;;9.83;2.97;;;14.10;97.20;;;;;;1708334;28;20194;-69
2022/05/30 07:25:41;;;;;;;6.65;2.92;;;14.10;97.20;;;;;;1708540;28;20221;-69
2022/05/30 07:26:33;;;;;;;4.10;2.83;;;14.10;97.20;;;;;;1707996;28;20203;-69
2022/05/30 07:27:25;;;;;;;6.00;3.10;;;14.20;97.20;;;;;;1708134;28;20683;-69
2022/05/30 07:28:16;;;;;;;6.30;3.50;;;14.20;97.20;;;;;;1707688;28;20245;-69
2022/05/30 07:29:08;;;;;;;3.83;3.17;;;14.20;97.20;;;;;;1708594;28;20200;-70
2022/05/30 07:29:59;;;;;;;4.85;2.97;;;14.30;97.20;;;;;;1707204;28;20244;-69
2022/05/30 07:30:50;;;;;;;3.97;3.47;;;14.30;97.20;;;;;;1708590;28;20201;-69
2022/05/30 07:31:41;;;;;;;6.50;2.92;;;14.40;97.20;;;;;;1707746;28;20485;-69
2022/05/30 07:32:33;;;;;;;4.90;2.97;;;14.40;97.20;;;;;;1707367;28;20214;-69
2022/05/30 07:33:25;;;;;;;3.10;2.80;;;14.40;97.20;;;;;;1709890;28;20533;-69
2022/05/30 07:34:16;;;;;;;3.63;3.00;;;14.40;97.20;;;;;;1708604;28;20198;-69
2022/05/30 07:35:08;;;;;;;4.23;2.93;;;14.50;97.20;;;;;;1709061;28;20213;-69
2022/05/30 07:36:02;;;;;;;4.35;2.75;;;14.50;97.20;;;;;;1708843;28;20240;-69
2022/05/30 07:36:53;;;;;;;8.20;3.60;;;14.50;97.20;;;;;;1710291;28;20206;-69
2022/05/30 07:37:44;;;;;;;8.45;3.60;;;14.50;97.20;;;;;;1709483;28;20222;-70
2022/05/30 07:38:36;;;;;;;3.57;2.90;;;14.50;97.20;;;;;;1710587;28;20193;-69
2022/05/30 07:39:27;;;;;;;4.30;3.90;;;14.50;97.20;;;;;;1710178;28;20205;-69
2022/05/30 07:40:19;;;;;;;4.00;3.47;;;14.60;97.20;;;;;;1709571;28;20212;-69
2022/05/30 07:41:10;;;;;;;7.57;3.22;;;14.60;97.20;;;;;;1709466;28;20285;-69
2022/05/30 07:42:01;;;;;;;3.40;3.10;;;14.60;97.20;;;;;;1709302;28;20269;-69
2022/05/30 07:42:53;;;;;;;6.28;3.50;;;14.60;97.20;;;;;;1709499;28;20553;-69
2022/05/30 07:43:45;;;;;;;6.97;3.28;;;14.70;97.20;;;;;;1710407;28;20194;-69
2022/05/30 07:44:36;;;;;;;5.65;2.92;;;14.70;97.20;;;;;;1709824;28;20233;-69
2022/05/30 07:45:28;;;;;;;4.68;3.10;;;14.80;97.20;;;;;;1709033;28;20213;-69
2022/05/30 07:46:19;;;;;;;3.63;3.33;;;14.80;97.20;;;;;;1709480;28;20220;-69
2022/05/30 07:47:11;;;;;;;5.50;2.85;;;14.80;97.20;;;;;;1710150;28;20586;-69
2022/05/30 07:48:02;;;;;;;4.95;2.65;;;14.90;97.20;;;;;;1709300;28;20206;-69
2022/05/30 07:48:54;;;;;;;5.45;2.70;;;14.90;97.20;;;;;;1710407;28;20205;-69
2022/05/30 07:49:45;;;;;;;4.30;2.55;;;14.90;97.20;;;;;;1709064;28;20672;-69
2022/05/30 07:50:38;;;;;;;3.67;2.60;;;15.00;97.20;;;;;;1709727;28;20210;-69
2022/05/30 07:51:30;;;;;;;3.55;2.40;;;15.10;97.20;;;;;;1709618;28;21112;-69
2022/05/30 07:52:21;;;;;;;3.90;3.17;;;15.10;97.20;;;;;;1709565;28;20280;-70
2022/05/30 07:53:12;;;;;;;3.50;2.70;;;15.20;97.20;;;;;;1709463;28;20682;-69
2022/05/30 07:54:04;;;;;;;6.43;3.00;;;15.20;97.20;;;;;;1709023;28;20626;-70
2022/05/30 07:54:55;;;;;;;5.55;3.38;;;15.30;97.20;;;;;;1709412;28;20225;-69
2022/05/30 07:55:47;;;;;;;5.03;3.00;;;15.30;97.20;;;;;;1709628;28;20209;-69
2022/05/30 07:56:38;;;;;;;5.20;2.97;;;15.30;97.20;;;;;;1709489;28;20457;-69
2022/05/30 07:58:51;;;;;;;3.90;2.60;;;15.40;97.20;;;;;;1695303;29;20439;-69
2022/05/30 07:59:42;;;;;;;4.28;2.55;;;15.40;97.20;;;;;;1695041;29;20208;-69
2022/05/30 08:00:35;;;;;;;5.10;3.42;;;15.40;97.20;;;;;;1697523;29;20710;-69
2022/05/30 08:01:27;;;;;;;5.63;3.00;;;15.50;97.20;;;;;;1702497;28;20196;-69
2022/05/30 08:02:18;;;;;;;4.05;3.50;;;15.50;97.20;;;;;;1710544;28;20232;-69
2022/05/30 08:03:11;;;;;;;3.00;2.80;;;15.50;97.20;;;;;;1708306;28;20190;-69
2022/05/30 08:04:02;;;;;;;7.28;3.97;;;15.50;97.20;;;;;;1708654;28;20234;-69
2022/05/30 08:04:54;;;;;;;4.20;3.30;;;15.60;97.20;;;;;;1709169;28;20198;-69
2022/05/30 08:05:45;;;;;;;4.70;3.60;;;15.60;97.20;;;;;;1709761;28;20446;-69
2022/05/30 08:06:38;;;;;;;8.60;4.03;;;15.60;97.20;;;;;;1709514;28;20675;-69
2022/05/30 08:07:29;;;;;;;5.40;3.38;;;15.60;97.20;;;;;;1709035;28;20243;-69
2022/05/30 08:08:20;;;;;;;3.57;2.77;;;15.60;97.20;;;;;;1710224;28;20209;-69
2022/05/30 08:09:11;;;;;;;4.95;3.42;;;15.60;97.20;;;;;;1709575;28;20709;-69
2022/05/30 08:10:07;;;;;;;4.47;3.00;;;15.70;97.20;;;;;;1709205;28;20572;-69
2022/05/30 08:10:58;;;;;;;3.92;2.60;;;15.80;97.20;;;;;;1709911;28;20202;-69
2022/05/30 08:11:50;;;;;;;3.23;2.70;;;15.80;97.20;;;;;;1707808;28;21001;-69
2022/05/30 08:12:41;;;;;;;5.63;2.75;;;15.90;97.20;;;;;;1709959;28;20325;-69
2022/05/30 08:13:33;;;;;;;6.93;2.63;;;16.00;97.20;;;;;;1709231;28;20209;-69
2022/05/30 08:14:23;;;;;;;3.47;2.55;;;16.00;97.20;;;;;;1709339;28;20458;-69
2022/05/30 08:15:16;;;;;;;3.97;2.40;;;16.00;97.20;;;;;;1710096;28;20194;-70
2022/05/30 08:16:07;;;;;;;4.57;2.40;;;16.00;97.20;;;;;;1710327;28;20631;-69
2022/05/30 08:17:00;;;;;;;3.88;2.60;;;16.10;97.20;;;;;;1709131;28;20301;-69
2022/05/30 08:17:53;;;;;;;2.45;2.25;;;16.10;97.20;;;;;;1709352;28;20742;-69
2022/05/30 08:18:45;;;;;;;3.92;1.90;;;16.10;97.20;;;;;;1709159;28;20728;-69
2022/05/30 08:19:40;;;;;;;3.95;2.25;;;16.20;97.20;;;;;;1710927;28;20201;-69
2022/05/30 08:20:33;;;;;;;3.50;2.28;;;16.30;97.20;;;;;;1709721;28;20205;-70
2022/05/30 08:21:23;;;;;;;3.83;2.28;;;16.40;97.20;;;;;;1708835;28;20681;-69
2022/05/30 08:22:18;;;;;;;2.73;2.00;;;16.40;97.20;;;;;;1709785;28;20646;-69
2022/05/30 08:23:09;;;;;;;2.50;2.30;;;16.50;97.20;;;;;;1710437;28;20585;-69
2022/05/30 08:24:00;;;;;;;5.80;2.70;;;16.60;97.20;;;;;;1708629;28;20607;-69
2022/05/30 08:24:52;;;;;;;2.53;2.33;;;16.60;97.20;;;;;;1708995;28;20475;-69
2022/05/30 08:25:45;;;;;;;4.53;2.65;;;16.60;97.20;;;;;;1708226;28;20206;-69
2022/05/30 08:26:37;;;;;;;2.33;2.13;;;16.60;97.20;;;;;;1708764;28;20211;-69
2022/05/30 08:27:28;;;;;;;3.25;2.60;;;16.70;97.20;;;;;;1709742;28;20686;-69
2022/05/30 08:28:19;;;;;;;3.27;2.67;;;16.70;97.20;;;;;;1709868;28;20623;-69
2022/05/30 08:29:10;;;;;;;2.72;2.50;;;16.70;97.20;;;;;;1708571;28;20633;-70
2022/05/30 08:30:02;;;;;;;3.07;2.67;;;16.70;97.20;;;;;;1709765;28;20585;-70
2022/05/30 08:30:53;;;;;;;5.03;2.70;;;16.70;97.20;;;;;;1709302;28;20238;-70
2022/05/30 08:31:44;;;;;;;3.03;2.47;;;16.70;97.20;;;;;;1709786;28;20673;-69
2022/05/30 08:32:38;;;;;;;4.80;2.70;;;16.70;97.20;;;;;;1709106;28;20233;-69
2022/05/30 08:33:29;;;;;;;4.65;2.60;;;16.60;97.20;;;;;;1710062;28;20201;-69
2022/05/30 08:34:20;;;;;;;3.80;2.58;;;16.60;97.20;;;;;;1708776;28;20627;-69
2022/05/30 08:35:16;;;;;;;3.80;2.33;;;16.60;97.20;;;;;;1709688;28;20220;-69
2022/05/30 08:36:10;;;;;;;3.15;2.30;;;16.60;97.20;;;;;;1709445;28;20207;-69
2022/05/30 08:37:02;;;;;;;3.45;2.20;;;16.60;97.20;;;;;;1709330;28;20229;-69
2022/05/30 08:37:57;;;;;;;2.95;2.28;;;16.70;97.20;;;;;;1708761;28;20199;-69
2022/05/30 08:38:49;;;;;;;2.53;2.33;;;16.80;97.20;;;;;;1705492;29;20217;-69
2022/05/30 08:42:00;;;;;;;4.10;2.13;;;17.00;97.20;;;;;;1705544;29;20609;-69
2022/05/30 08:42:52;;;;;;;2.30;1.98;;;17.00;97.20;;;;;;1705925;29;20230;-70
2022/05/30 08:43:43;;;;;;;4.32;1.92;;;17.00;97.20;;;;;;1708032;28;20206;-69
2022/05/30 08:44:35;;;;;;;2.47;2.10;;;17.00;97.20;;;;;;1710139;28;20202;-69
2022/05/30 08:45:27;;;;;;;5.10;2.30;;;17.10;97.20;;;;;;1709635;28;20194;-69
2022/05/30 08:46:38;;;;;;;3.45;2.15;;;17.10;97.20;;;;;;1709764;28;20229;-69
2022/05/30 08:47:50;;;;;;;6.80;2.45;;;17.20;97.20;;;;;;1709311;28;20206;-69
2022/05/30 08:48:45;;;;;;;3.67;2.50;;;17.20;97.20;;;;;;1709151;28;20314;-69
2022/05/30 08:49:46;;;;;;;2.60;2.10;;;17.30;97.20;;;;;;1709418;28;20198;-69
2022/05/30 08:50:44;;;;;;;2.92;2.15;;;17.30;97.20;;;;;;1709783;28;20234;-69
2022/05/30 08:51:59;;;;;;;5.78;2.35;;;17.30;97.20;;;;;;1708636;28;20210;-69
2022/05/30 08:53:18;;;;;;;3.13;2.05;;;17.30;97.20;;;;;;1708286;28;20246;-69
2022/05/30 08:54:24;;;;;;;2.35;1.90;;;17.30;97.20;;;;;;1708540;28;20237;-69
2022/05/30 08:55:22;;;;;;;3.05;2.10;;;17.40;97.20;;;;;;1708791;28;20684;-70
2022/05/30 08:56:21;;;;;;;4.45;2.35;;;17.40;97.20;;;;;;1709982;28;20198;-69
2022/05/30 08:57:21;;;;;;;3.38;1.75;;;17.50;97.20;;;;;;1708378;28;20207;-69
2022/05/30 08:58:33;;;;;;;3.55;1.98;;;17.60;97.20;;;;;;1709893;28;20203;-69
2022/05/30 08:59:39;;;;;;;6.25;2.08;;;17.60;97.20;;;;;;1709780;28;20199;-69
2022/05/30 09:00:34;;;;;;;2.25;1.70;;;17.70;97.20;;;;;;1708903;28;20215;-69
2022/05/30 09:01:32;;;;;;;2.75;1.65;;;17.70;97.20;;;;;;1709550;28;20213;-69
2022/05/30 09:02:28;;;;;;;2.72;1.90;;;17.60;97.20;;;;;;1709394;28;20261;-69
2022/05/30 09:03:25;;;;;;;2.40;1.80;;;17.60;97.20;;;;;;1708866;28;20667;-69
2022/05/30 09:04:23;;;;;;;3.75;1.73;;;17.50;97.20;;;;;;1709593;28;20693;-69
2022/05/30 09:05:20;;;;;;;3.97;2.20;;;17.40;97.20;;;;;;1710176;28;20620;-69
2022/05/30 09:06:20;;;;;;;2.30;1.67;;;17.40;97.20;;;;;;1708320;28;20487;-69
2022/05/30 09:07:16;;;;;;;3.30;2.05;;;17.40;97.20;;;;;;1707415;28;20236;-69
2022/05/30 09:08:15;;;;;;;2.83;2.00;;;17.40;97.20;;;;;;1710204;28;20207;-69
2022/05/30 09:09:15;;;;;;;5.43;2.17;;;17.40;97.20;;;;;;1710206;28;20686;-70
2022/05/30 09:10:11;;;;;;;2.65;2.05;;;17.50;97.20;;;;;;1708869;28;20210;-69
2022/05/30 09:11:08;;;;;;;3.85;2.00;;;17.70;97.20;;;;;;1709451;28;20254;-69
2022/05/30 09:12:04;;;;;;;2.53;2.03;;;17.80;97.20;;;;;;1707985;28;20223;-69
2022/05/30 09:13:02;;;;;;;2.72;2.13;;;17.90;97.20;;;;;;1708599;28;20755;-69
2022/05/30 09:13:56;;;;;;;5.25;1.90;;;18.00;97.20;;;;;;1709942;28;20612;-69
2022/05/30 09:14:52;;;;;;;2.83;2.35;;;18.20;97.20;;;;;;1709991;28;20190;-69
2022/05/30 09:15:47;;;;;;;5.07;2.30;;;18.30;97.20;;;;;;1710116;28;20245;-69
2022/05/30 09:16:44;;;;;;;3.60;2.03;;;18.50;97.20;;;;;;1707920;28;20203;-69
2022/05/30 09:17:39;;;;;;;3.20;1.92;;;18.60;97.20;;;;;;1709086;28;20206;-69
2022/05/30 09:18:36;;;;;;;2.60;2.20;;;18.80;97.20;;;;;;1709359;28;20612;-69
2022/05/30 09:19:27;;;;;;;4.05;2.78;;;18.90;97.20;;;;;;1709052;28;20202;-69
2022/05/30 09:20:22;;;;;;;3.95;2.20;;;19.00;97.20;;;;;;1709013;28;20194;-69
2022/05/30 09:21:14;;;;;;;2.78;1.80;;;19.00;97.20;;;;;;1709049;28;20293;-70
2022/05/30 09:22:09;;;;;;;2.20;2.00;;;19.00;97.20;;;;;;1708744;28;20217;-69
2022/05/30 09:23:02;;;;;;;2.95;2.10;;;19.00;97.20;;;;;;1708982;28;20210;-69
2022/05/30 09:23:54;;;;;;;6.90;2.00;;;19.10;97.20;;;;;;1708103;28;20198;-69
2022/05/30 09:25:55;;;;;;;3.50;1.77;;;19.20;97.20;;;;;;1709785;28;20198;-69
2022/05/30 09:26:00;;;;;;;2.53;1.88;;;19.30;97.20;;;;;;1708385;28;20721;-69
2022/05/30 09:26:51;;;;;;;2.15;1.95;;;19.50;97.20;;;;;;1709834;28;20666;-69
2022/05/30 09:27:42;;;;;;;6.13;1.85;;;19.70;97.20;;;;;;1708614;28;20248;-69
2022/05/30 09:28:36;;;;;;;2.20;1.77;;;19.80;97.20;;;;;;1708406;28;20195;-69
2022/05/30 09:29:31;;;;;;;2.10;1.80;;;19.90;97.20;;;;;;1707550;28;20207;-69
2022/05/30 09:30:27;;;;;;;1.70;1.52;;;20.10;97.20;;;;;;1710864;28;20286;-69
2022/05/30 09:31:30;;;;;;;3.10;1.75;;;20.20;97.20;;;;;;1708665;28;20252;-69
2022/05/30 09:32:33;;;;;;;2.53;1.88;;;20.30;97.20;;;;;;1708834;28;20207;-70
2022/05/30 09:33:29;;;;;;;4.57;1.92;;;20.40;97.20;;;;;;1708860;28;20202;-70
2022/05/30 09:34:40;;;;;;;1.60;1.50;;;20.40;97.20;;;;;;1708351;28;20265;-69
2022/05/30 09:35:33;;;;;;;2.97;1.88;;;20.30;97.20;;;;;;1708146;28;20290;-69
2022/05/30 09:36:27;;;;;;;3.08;1.60;;;20.10;97.20;;;;;;1708448;28;20720;-69
2022/05/30 09:37:26;;;;;;;3.85;1.70;;;20.10;97.20;;;;;;1707829;28;20337;-70
2022/05/30 09:38:20;;;;;;;3.15;1.30;;;20.10;97.20;;;;;;1708900;28;20615;-70
2022/05/30 09:39:17;;;;;;;1.85;1.65;;;20.10;97.20;;;;;;1709525;28;20198;-69
2022/05/30 09:40:10;;;;;;;2.13;1.40;;;20.10;97.20;;;;;;1708592;28;20617;-70
2022/05/30 09:41:06;;;;;;;1.52;1.20;;;20.10;97.20;;;;;;1709577;28;20198;-69
2022/05/30 09:42:01;;;;;;;2.20;1.50;;;20.20;97.20;;;;;;1708918;28;20736;-69